createdAt,value
2018-11-13T00:00:31.911Z,26.21
2018-11-13T00:01:31.924Z,26.50
2018-11-13T00:02:31.890Z,26.21
2018-11-13T00:03:31.895Z,26.12
2018-11-13T00:04:31.900Z,26.40
2018-11-13T00:05:31.908Z,26.40
2018-11-13T00:06:31.911Z,26.12
2018-11-13T00:07:31.912Z,26.40
2018-11-13T00:08:31.891Z,26.12
2018-11-13T00:09:31.890Z,26.31
2018-11-13T00:10:31.898Z,26.02
2018-11-13T00:11:31.936Z,25.83
2018-11-13T00:12:31.916Z,25.83
2018-11-13T00:13:31.910Z,25.27
2018-11-13T00:14:31.917Z,25.16
2018-11-13T00:15:31.932Z,25.26
2018-11-13T00:16:31.909Z,25.26
2018-11-13T00:17:31.888Z,25.16
2018-11-13T00:18:31.896Z,25.26
2018-11-13T00:19:31.896Z,25.27
2018-11-13T00:20:31.888Z,25.83
2018-11-13T00:21:31.903Z,25.73
2018-11-13T00:22:31.892Z,25.83
2018-11-13T00:23:31.910Z,25.73
2018-11-13T00:24:31.936Z,25.92
2018-11-13T00:25:31.896Z,26.40
2018-11-13T00:26:31.903Z,26.02
2018-11-13T00:27:32.027Z,26.40
2018-11-13T00:28:32.050Z,26.12
2018-11-13T00:29:31.934Z,26.42
2018-11-13T00:30:31.929Z,26.40
2018-11-13T00:31:31.916Z,25.94
2018-11-13T00:32:31.895Z,26.12
2018-11-13T00:33:31.924Z,26.21
2018-11-13T00:34:31.904Z,26.21
2018-11-13T00:35:31.948Z,26.12
2018-11-13T00:36:31.900Z,26.12
2018-11-13T00:37:31.899Z,26.51
2018-11-13T00:38:31.902Z,26.21
2018-11-13T00:39:31.905Z,26.21
2018-11-13T00:40:31.914Z,26.31
2018-11-13T00:41:31.905Z,26.31
2018-11-13T00:42:31.917Z,26.40
2018-11-13T00:43:31.950Z,26.12
2018-11-13T00:44:31.930Z,26.21
2018-11-13T00:45:31.989Z,26.21
2018-11-13T00:46:31.930Z,26.40
2018-11-13T00:47:31.918Z,26.21
2018-11-13T00:48:31.914Z,25.54
2018-11-13T00:49:31.907Z,25.26
2018-11-13T00:50:31.951Z,25.64
2018-11-13T00:51:31.932Z,25.64
2018-11-13T00:52:32.072Z,25.16
2018-11-13T00:53:31.908Z,25.26
2018-11-13T00:54:31.921Z,25.35
2018-11-13T00:55:31.919Z,25.16
2018-11-13T00:56:31.912Z,25.45
2018-11-13T00:57:31.916Z,25.26
2018-11-13T00:58:31.906Z,25.16
2018-11-13T00:59:32.165Z,25.07
2018-11-13T01:00:31.934Z,25.18
2018-11-13T01:01:31.911Z,25.45
2018-11-13T01:02:31.922Z,25.16
2018-11-13T01:03:31.919Z,25.45
2018-11-13T01:04:31.935Z,25.26
2018-11-13T01:05:32.097Z,25.54
2018-11-13T01:06:31.936Z,25.64
2018-11-13T01:07:31.956Z,25.35
2018-11-13T01:08:31.919Z,25.73
2018-11-13T01:09:31.919Z,26.02
2018-11-13T01:10:31.911Z,26.21
2018-11-13T01:11:31.932Z,25.83
2018-11-13T01:12:31.928Z,25.73
2018-11-13T01:13:31.917Z,25.73
2018-11-13T01:14:31.927Z,25.92
2018-11-13T01:15:31.913Z,25.92
2018-11-13T01:16:31.924Z,25.92
2018-11-13T01:17:32.391Z,25.83
2018-11-13T01:18:31.927Z,25.83
2018-11-13T01:19:31.923Z,25.92
2018-11-13T01:20:31.916Z,25.83
2018-11-13T01:21:31.948Z,26.12
2018-11-13T01:22:31.941Z,26.02
2018-11-13T01:23:31.926Z,26.40
2018-11-13T01:24:31.917Z,26.21
2018-11-13T01:25:31.955Z,26.31
2018-11-13T01:26:31.922Z,26.50
2018-11-13T01:27:31.934Z,26.21
2018-11-13T01:28:31.936Z,26.31
2018-11-13T01:29:31.922Z,25.92
2018-11-13T01:30:31.936Z,26.02
2018-11-13T01:31:31.944Z,26.21
2018-11-13T01:32:31.926Z,26.21
2018-11-13T01:33:31.925Z,26.12
2018-11-13T01:34:31.947Z,26.12
2018-11-13T01:35:31.930Z,26.21
2018-11-13T01:36:31.943Z,26.12
2018-11-13T01:37:31.938Z,26.12
2018-11-13T01:38:31.941Z,26.50
2018-11-13T01:39:31.961Z,26.31
2018-11-13T01:40:31.932Z,26.78
2018-11-13T01:41:31.982Z,26.59
2018-11-13T01:42:31.928Z,26.50
2018-11-13T01:43:31.942Z,26.78
2018-11-13T01:44:31.955Z,26.59
2018-11-13T01:45:31.942Z,26.88
2018-11-13T01:46:31.942Z,26.88
2018-11-13T01:47:31.926Z,27.16
2018-11-13T01:48:31.927Z,27.07
2018-11-13T01:49:32.073Z,26.78
2018-11-13T01:50:31.951Z,26.78
2018-11-13T01:51:31.948Z,26.50
2018-11-13T01:52:31.960Z,26.78
2018-11-13T01:53:31.942Z,26.88
2018-11-13T01:54:32.215Z,27.26
2018-11-13T01:55:31.930Z,27.16
2018-11-13T01:56:31.925Z,27.26
2018-11-13T01:57:31.927Z,26.97
2018-11-13T01:58:31.998Z,27.26
2018-11-13T01:59:31.946Z,27.07
2018-11-13T02:00:31.932Z,27.26
2018-11-13T02:01:31.937Z,26.88
2018-11-13T02:02:31.936Z,26.97
2018-11-13T02:03:31.935Z,26.88
2018-11-13T02:04:31.932Z,27.16
2018-11-13T02:05:31.936Z,27.16
2018-11-13T02:06:31.937Z,27.45
2018-11-13T02:07:31.932Z,27.45
2018-11-13T02:08:31.936Z,27.83
2018-11-13T02:09:31.955Z,27.83
2018-11-13T02:10:31.948Z,28.12
2018-11-13T02:11:31.957Z,27.92
2018-11-13T02:12:31.937Z,27.92
2018-11-13T02:13:31.997Z,27.73
2018-11-13T02:14:31.932Z,27.83
2018-11-13T02:15:31.956Z,28.12
2018-11-13T02:16:31.931Z,28.40
2018-11-13T02:17:31.952Z,28.31
2018-11-13T02:18:31.930Z,27.92
2018-11-13T02:19:31.945Z,28.21
2018-11-13T02:20:31.949Z,27.92
2018-11-13T02:21:31.937Z,27.73
2018-11-13T02:22:31.946Z,28.12
2018-11-13T02:23:31.952Z,28.40
2018-11-13T02:24:31.949Z,28.69
2018-11-13T02:25:31.974Z,28.50
2018-11-13T02:26:31.958Z,28.77
2018-11-13T02:27:31.964Z,28.97
2018-11-13T02:28:31.973Z,28.78
2018-11-13T02:29:31.971Z,29.16
2018-11-13T02:30:31.951Z,29.16
2018-11-13T02:31:31.940Z,29.16
2018-11-13T02:32:31.939Z,28.97
2018-11-13T02:33:31.948Z,29.45
2018-11-13T02:34:32.010Z,29.45
2018-11-13T02:35:32.007Z,29.64
2018-11-13T02:36:31.973Z,29.83
2018-11-13T02:37:31.995Z,30.21
2018-11-13T02:38:31.944Z,30.79
2018-11-13T02:39:31.973Z,31.45
2018-11-13T02:40:31.958Z,32.12
2018-11-13T02:41:31.973Z,32.88
2018-11-13T02:42:31.964Z,32.60
2018-11-13T02:43:31.965Z,32.98
2018-11-13T02:44:31.964Z,33.45
2018-11-13T02:45:31.953Z,33.84
2018-11-13T02:46:31.977Z,33.93
2018-11-13T02:47:32.044Z,34.41
2018-11-13T02:48:31.965Z,34.50
2018-11-13T02:49:31.984Z,34.50
2018-11-13T02:50:31.972Z,35.46
2018-11-13T02:51:31.952Z,35.84
2018-11-13T02:52:31.956Z,36.32
2018-11-13T02:53:31.958Z,36.69
2018-11-13T02:54:31.963Z,36.58
2018-11-13T02:55:31.950Z,36.60
2018-11-13T02:56:31.965Z,36.49
2018-11-13T02:57:31.959Z,36.68
2018-11-13T02:58:31.970Z,36.60
2018-11-13T02:59:31.956Z,37.06
2018-11-13T03:00:31.972Z,37.25
2018-11-13T03:01:31.953Z,36.79
2018-11-13T03:02:31.961Z,37.17
2018-11-13T03:03:31.957Z,37.34
2018-11-13T03:04:31.958Z,38.29
2018-11-13T03:05:31.953Z,38.39
2018-11-13T03:06:31.954Z,38.29
2018-11-13T03:07:31.970Z,38.49
2018-11-13T03:08:31.960Z,38.20
2018-11-13T03:09:31.945Z,38.10
2018-11-13T03:10:31.954Z,37.92
2018-11-13T03:11:31.961Z,38.49
2018-11-13T03:12:31.964Z,38.58
2018-11-13T03:13:33.735Z,38.87
2018-11-13T03:14:31.972Z,38.87
2018-11-13T03:15:31.977Z,38.87
2018-11-13T03:16:31.994Z,38.87
2018-11-13T03:17:31.958Z,38.87
2018-11-13T03:18:31.962Z,38.79
2018-11-13T03:19:31.951Z,39.82
2018-11-13T03:20:31.961Z,39.34
2018-11-13T03:21:31.961Z,39.34
2018-11-13T03:22:31.954Z,39.73
2018-11-13T03:23:31.958Z,40.11
2018-11-13T03:24:31.977Z,40.22
2018-11-13T03:25:31.970Z,40.30
2018-11-13T03:26:31.971Z,40.87
2018-11-13T03:27:31.976Z,41.16
2018-11-13T03:28:31.970Z,41.16
2018-11-13T03:29:31.957Z,41.35
2018-11-13T03:30:31.962Z,41.53
2018-11-13T03:31:31.997Z,41.82
2018-11-13T03:32:31.962Z,42.22
2018-11-13T03:33:31.957Z,42.40
2018-11-13T03:34:31.958Z,43.16
2018-11-13T03:35:31.954Z,43.54
2018-11-13T03:36:31.964Z,44.30
2018-11-13T03:37:31.967Z,45.06
2018-11-13T03:38:31.965Z,45.06
2018-11-13T03:39:31.959Z,46.11
2018-11-13T03:40:31.965Z,45.92
2018-11-13T03:41:31.978Z,45.92
2018-11-13T03:42:31.965Z,46.20
2018-11-13T03:43:31.968Z,46.49
2018-11-13T03:44:31.953Z,46.58
2018-11-13T03:45:31.958Z,46.97
2018-11-13T03:46:31.955Z,46.97
2018-11-13T03:47:31.987Z,47.92
2018-11-13T03:48:31.985Z,48.21
2018-11-13T03:49:31.987Z,48.49
2018-11-13T03:50:31.970Z,48.30
2018-11-13T03:51:31.961Z,48.87
2018-11-13T03:52:31.966Z,49.26
2018-11-13T03:53:31.975Z,49.35
2018-11-13T03:54:31.988Z,49.54
2018-11-13T03:55:31.974Z,50.40
2018-11-13T03:56:31.974Z,51.06
2018-11-13T03:57:31.987Z,50.97
2018-11-13T03:58:31.975Z,51.45
2018-11-13T03:59:32.003Z,51.45
2018-11-13T04:00:31.963Z,51.73
2018-11-13T04:01:31.972Z,51.25
2018-11-13T04:02:31.970Z,52.01
2018-11-13T04:03:31.972Z,52.01
2018-11-13T04:04:31.976Z,52.49
2018-11-13T04:05:31.955Z,52.78
2018-11-13T04:06:31.991Z,52.68
2018-11-13T04:07:31.960Z,52.68
2018-11-13T04:08:31.979Z,53.25
2018-11-13T04:09:31.961Z,53.54
2018-11-13T04:10:31.962Z,53.83
2018-11-13T04:11:31.986Z,53.64
2018-11-13T04:12:31.976Z,53.73
2018-11-13T04:13:31.957Z,53.73
2018-11-13T04:14:31.964Z,53.92
2018-11-13T04:15:31.982Z,53.44
2018-11-13T04:16:31.982Z,53.92
2018-11-13T04:17:31.989Z,54.11
2018-11-13T04:18:31.972Z,54.14
2018-11-13T04:19:31.966Z,54.59
2018-11-13T04:20:31.955Z,54.78
2018-11-13T04:21:31.995Z,55.35
2018-11-13T04:22:31.983Z,55.76
2018-11-13T04:23:31.958Z,55.73
2018-11-13T04:24:31.969Z,56.30
2018-11-13T04:25:31.962Z,56.33
2018-11-13T04:26:31.989Z,56.33
2018-11-13T04:27:31.986Z,56.40
2018-11-13T04:28:31.979Z,56.90
2018-11-13T04:29:31.976Z,58.24
2018-11-13T04:30:31.967Z,58.04
2018-11-13T04:31:31.982Z,58.40
2018-11-13T04:32:31.997Z,58.33
2018-11-13T04:33:31.972Z,59.00
2018-11-13T04:34:31.982Z,59.57
2018-11-13T04:35:31.973Z,59.86
2018-11-13T04:36:31.973Z,60.91
2018-11-13T04:37:31.978Z,61.10
2018-11-13T04:38:31.976Z,61.96
2018-11-13T04:39:32.003Z,62.52
2018-11-13T04:40:31.965Z,63.67
2018-11-13T04:41:32.016Z,65.96
2018-11-13T04:42:31.988Z,65.67
2018-11-13T04:43:31.978Z,65.67
2018-11-13T04:44:31.972Z,66.24
2018-11-13T04:45:31.979Z,66.05
2018-11-13T04:46:31.976Z,66.63
2018-11-13T04:47:31.991Z,67.86
2018-11-13T04:48:31.979Z,68.44
2018-11-13T04:49:31.977Z,69.39
2018-11-13T04:50:31.987Z,68.44
2018-11-13T04:51:32.021Z,68.53
2018-11-13T04:52:31.977Z,68.15
2018-11-13T04:53:31.996Z,68.63
2018-11-13T04:54:32.007Z,67.86
2018-11-13T04:55:31.969Z,68.53
2018-11-13T04:56:31.981Z,68.24
2018-11-13T04:57:31.986Z,68.24
2018-11-13T04:58:31.993Z,68.24
2018-11-13T04:59:31.981Z,67.58
2018-11-13T05:00:31.969Z,68.05
2018-11-13T05:01:31.998Z,67.48
2018-11-13T05:02:31.967Z,67.86
2018-11-13T05:03:31.987Z,68.05
2018-11-13T05:04:32.002Z,67.45
2018-11-13T05:05:31.987Z,66.59
2018-11-13T05:06:32.010Z,65.83
2018-11-13T05:07:31.983Z,65.16
2018-11-13T05:08:31.995Z,64.31
2018-11-13T05:09:31.987Z,63.64
2018-11-13T05:10:31.974Z,62.40
2018-11-13T05:11:31.985Z,62.40
2018-11-13T05:12:31.978Z,61.07
2018-11-13T05:13:31.996Z,60.88
2018-11-13T05:14:31.973Z,60.30
2018-11-13T05:15:32.000Z,59.26
2018-11-13T05:16:31.973Z,59.16
2018-11-13T05:17:31.977Z,59.35
2018-11-13T05:18:31.989Z,58.69
2018-11-13T05:19:31.974Z,58.21
2018-11-13T05:20:31.980Z,58.69
2018-11-13T05:21:31.996Z,59.26
2018-11-13T05:22:31.995Z,58.69
2018-11-13T05:23:32.004Z,58.11
2018-11-13T05:24:31.967Z,58.33
2018-11-13T05:25:31.999Z,58.04
2018-11-13T05:26:32.017Z,58.24
2018-11-13T05:27:31.980Z,58.04
2018-11-13T05:28:31.980Z,58.24
2018-11-13T05:29:31.990Z,58.04
2018-11-13T05:30:31.985Z,57.95
2018-11-13T05:31:31.992Z,58.72
2018-11-13T05:32:32.002Z,59.28
2018-11-13T05:33:31.973Z,59.57
2018-11-13T05:34:31.981Z,59.57
2018-11-13T05:35:31.995Z,59.48
2018-11-13T05:36:31.989Z,59.95
2018-11-13T05:37:31.992Z,59.95
2018-11-13T05:38:32.001Z,60.52
2018-11-13T05:39:31.991Z,61.29
2018-11-13T05:40:32.012Z,61.19
2018-11-13T05:41:32.045Z,61.48
2018-11-13T05:42:31.984Z,62.24
2018-11-13T05:43:31.977Z,62.43
2018-11-13T05:44:31.984Z,62.52
2018-11-13T05:45:31.979Z,63.00
2018-11-13T05:46:31.989Z,63.76
2018-11-13T05:47:31.979Z,63.76
2018-11-13T05:48:31.987Z,64.72
2018-11-13T05:49:31.986Z,64.53
2018-11-13T05:50:31.984Z,65.00
2018-11-13T05:51:31.994Z,64.53
2018-11-13T05:52:31.991Z,65.29
2018-11-13T05:53:31.999Z,65.20
2018-11-13T05:54:31.998Z,65.58
2018-11-13T05:55:31.996Z,65.48
2018-11-13T05:56:32.010Z,66.63
2018-11-13T05:57:32.009Z,68.15
2018-11-13T05:58:32.021Z,68.15
2018-11-13T05:59:31.987Z,68.15
2018-11-13T06:00:32.036Z,68.24
2018-11-13T06:01:32.005Z,68.34
2018-11-13T06:02:31.980Z,68.15
2018-11-13T06:03:32.033Z,68.53
2018-11-13T06:04:31.989Z,68.15
2018-11-13T06:05:31.987Z,68.24
2018-11-13T06:06:32.044Z,67.68
2018-11-13T06:07:31.991Z,67.77
2018-11-13T06:08:32.061Z,67.86
2018-11-13T06:09:32.019Z,68.24
2018-11-13T06:10:31.989Z,68.05
2018-11-13T06:11:32.008Z,69.29
2018-11-13T06:12:32.000Z,69.20
2018-11-13T06:13:32.034Z,69.39
2018-11-13T06:14:31.983Z,70.06
2018-11-13T06:15:31.990Z,70.15
2018-11-13T06:16:31.980Z,70.06
2018-11-13T06:17:31.984Z,69.77
2018-11-13T06:18:31.994Z,70.82
2018-11-13T06:19:31.999Z,70.63
2018-11-13T06:20:31.997Z,70.82
2018-11-13T06:21:31.983Z,71.64
2018-11-13T06:22:31.978Z,71.83
2018-11-13T06:23:32.017Z,71.64
2018-11-13T06:24:32.007Z,71.30
2018-11-13T06:25:32.000Z,70.88
2018-11-13T06:26:32.004Z,71.01
2018-11-13T06:27:32.006Z,71.55
2018-11-13T06:28:32.016Z,72.02
2018-11-13T06:29:32.070Z,72.12
2018-11-13T06:30:32.000Z,72.63
2018-11-13T06:31:32.024Z,72.78
2018-11-13T06:32:31.987Z,72.78
2018-11-13T06:33:32.002Z,72.21
2018-11-13T06:34:32.008Z,71.93
2018-11-13T06:35:32.008Z,72.31
2018-11-13T06:36:32.007Z,73.07
2018-11-13T06:37:31.991Z,73.26
2018-11-13T06:38:32.026Z,73.45
2018-11-13T06:39:32.046Z,73.07
2018-11-13T06:40:31.996Z,73.26
2018-11-13T06:41:32.005Z,73.36
2018-11-13T06:42:31.992Z,73.17
2018-11-13T06:43:32.019Z,74.12
2018-11-13T06:44:32.013Z,75.16
2018-11-13T06:45:31.990Z,75.07
2018-11-13T06:46:32.028Z,75.84
2018-11-13T06:47:31.982Z,75.55
2018-11-13T06:48:31.984Z,75.84
2018-11-13T06:49:32.010Z,75.64
2018-11-13T06:50:31.990Z,75.74
2018-11-13T06:51:31.992Z,74.98
2018-11-13T06:52:32.007Z,75.93
2018-11-13T06:53:32.029Z,75.93
2018-11-13T06:54:31.984Z,74.88
2018-11-13T06:55:31.984Z,75.45
2018-11-13T06:56:32.037Z,75.26
2018-11-13T06:57:32.063Z,75.74
2018-11-13T06:58:31.999Z,75.45
2018-11-13T06:59:32.001Z,75.45
2018-11-13T07:00:32.011Z,76.21
2018-11-13T07:01:31.987Z,76.69
2018-11-13T07:02:32.025Z,78.03
2018-11-13T07:03:32.015Z,77.74
2018-11-13T07:04:32.006Z,77.93
2018-11-13T07:05:31.988Z,78.41
2018-11-13T07:06:31.990Z,78.78
2018-11-13T07:07:32.003Z,77.55
2018-11-13T07:08:32.035Z,77.55
2018-11-13T07:09:32.041Z,77.64
2018-11-13T07:10:32.040Z,78.22
2018-11-13T07:11:32.002Z,78.12
2018-11-13T07:12:31.994Z,79.46
2018-11-13T07:13:32.019Z,79.36
2018-11-13T07:14:31.987Z,78.98
2018-11-13T07:15:31.987Z,78.69
2018-11-13T07:16:32.021Z,79.27
2018-11-13T07:17:32.014Z,79.07
2018-11-13T07:18:32.117Z,79.27
2018-11-13T07:19:32.000Z,79.46
2018-11-13T07:20:32.039Z,79.46
2018-11-13T07:21:32.038Z,80.22
2018-11-13T07:22:32.002Z,79.64
2018-11-13T07:23:31.982Z,79.64
2018-11-13T07:24:31.980Z,80.44
2018-11-13T07:25:32.057Z,80.98
2018-11-13T07:26:31.998Z,80.26
2018-11-13T07:27:32.065Z,80.83
2018-11-13T07:28:31.988Z,81.40
2018-11-13T07:29:32.011Z,82.45
2018-11-13T07:30:31.996Z,83.59
2018-11-13T07:31:32.020Z,85.21
2018-11-13T07:32:31.988Z,85.78
2018-11-13T07:33:32.061Z,86.36
2018-11-13T07:34:32.160Z,86.36
2018-11-13T07:35:32.039Z,87.31
2018-11-13T07:36:31.989Z,87.60
2018-11-13T07:37:32.042Z,89.31
2018-11-13T07:38:31.984Z,91.03
2018-11-13T07:39:32.027Z,91.31
2018-11-13T07:40:31.990Z,91.50
2018-11-13T07:41:32.030Z,91.41
2018-11-13T07:42:31.997Z,91.79
2018-11-13T07:43:32.049Z,92.74
2018-11-13T07:44:31.988Z,93.79
2018-11-13T07:45:32.015Z,95.65
2018-11-13T07:46:32.075Z,95.61
2018-11-13T07:47:32.271Z,97.08
2018-11-13T07:48:32.020Z,97.56
2018-11-13T07:49:32.215Z,97.94
2018-11-13T07:50:32.013Z,98.70
2018-11-13T07:51:31.993Z,98.22
2018-11-13T07:52:31.985Z,99.75
2018-11-13T07:53:31.987Z,99.99
2018-11-13T07:54:31.999Z,99.99
2018-11-13T07:55:31.986Z,99.99
2018-11-13T07:56:32.073Z,99.99
2018-11-13T07:57:31.994Z,99.99
2018-11-13T07:58:32.102Z,99.99
2018-11-13T07:59:31.999Z,99.99
2018-11-13T08:00:31.998Z,99.99
2018-11-13T08:01:31.993Z,99.99
2018-11-13T08:02:32.010Z,99.99
2018-11-13T08:03:32.020Z,99.99
2018-11-13T08:04:32.017Z,99.99
2018-11-13T08:05:32.072Z,99.99
2018-11-13T08:06:32.068Z,99.99
2018-11-13T08:07:32.031Z,99.99
2018-11-13T08:08:32.037Z,99.99
2018-11-13T08:09:31.992Z,99.99
2018-11-13T08:10:32.090Z,99.99
2018-11-13T08:11:32.096Z,99.99
2018-11-13T08:12:31.986Z,99.99
2018-11-13T08:13:32.068Z,99.99
2018-11-13T08:14:32.034Z,99.99
2018-11-13T08:15:32.069Z,99.99
2018-11-13T08:16:32.049Z,99.99
2018-11-13T08:17:32.003Z,99.99
2018-11-13T08:18:32.055Z,99.99
2018-11-13T08:19:32.032Z,99.99
2018-11-13T08:20:32.023Z,99.99
2018-11-13T08:21:32.002Z,99.99
2018-11-13T08:22:32.001Z,99.99
2018-11-13T08:23:32.017Z,99.99
2018-11-13T08:24:32.006Z,99.99
2018-11-13T08:25:32.064Z,99.99
2018-11-13T08:26:31.998Z,99.99
2018-11-13T08:27:32.039Z,99.99
2018-11-13T08:28:32.047Z,99.99
2018-11-13T08:29:32.061Z,99.99
2018-11-13T08:30:32.023Z,99.99
2018-11-13T08:31:32.081Z,99.99
2018-11-13T08:32:32.006Z,99.99
2018-11-13T08:33:32.036Z,99.99
2018-11-13T08:34:32.016Z,99.99
2018-11-13T08:35:32.135Z,99.99
2018-11-13T08:36:32.039Z,99.99
2018-11-13T08:37:32.037Z,99.99
2018-11-13T08:38:32.023Z,99.99
2018-11-13T08:39:32.046Z,99.99
2018-11-13T08:40:32.055Z,99.99
2018-11-13T08:41:32.056Z,99.99
2018-11-13T08:42:32.089Z,99.99
2018-11-13T08:43:32.105Z,99.99
2018-11-13T08:44:32.041Z,99.99
2018-11-13T08:45:32.039Z,99.99
2018-11-13T08:46:32.032Z,99.99
2018-11-13T08:47:32.029Z,99.99
2018-11-13T08:48:32.042Z,99.99
2018-11-13T08:49:32.024Z,99.99
2018-11-13T08:50:32.082Z,99.99
2018-11-13T08:51:32.034Z,99.99
2018-11-13T08:52:32.080Z,99.99
2018-11-13T08:53:32.060Z,99.99
2018-11-13T08:54:32.039Z,99.99
2018-11-13T08:55:32.050Z,99.99
2018-11-13T08:56:32.115Z,99.99
2018-11-13T08:57:32.046Z,99.99
2018-11-13T08:58:32.116Z,99.99
2018-11-13T08:59:32.176Z,99.99
2018-11-13T09:00:32.025Z,99.99
2018-11-13T09:01:32.183Z,99.99
2018-11-13T09:02:32.065Z,99.99
2018-11-13T09:03:32.038Z,99.99
2018-11-13T09:04:32.024Z,99.99
2018-11-13T09:05:32.046Z,99.99
2018-11-13T09:06:32.034Z,99.99
2018-11-13T09:07:32.058Z,99.99
2018-11-13T09:08:32.050Z,99.99
2018-11-13T09:09:32.043Z,99.99
2018-11-13T09:10:32.046Z,99.99
2018-11-13T09:11:32.090Z,99.99
2018-11-13T09:12:32.180Z,99.99
2018-11-13T09:13:32.093Z,99.99
2018-11-13T09:14:32.041Z,99.99
2018-11-13T09:15:32.070Z,99.99
2018-11-13T09:16:32.073Z,99.99
2018-11-13T09:17:32.033Z,99.99
2018-11-13T09:18:32.037Z,99.99
2018-11-13T09:19:32.320Z,99.99
2018-11-13T09:20:32.209Z,99.99
2018-11-13T09:21:32.054Z,99.99
2018-11-13T09:22:32.075Z,99.99
2018-11-13T09:23:32.040Z,99.99
2018-11-13T09:24:33.049Z,99.99
2018-11-13T09:25:32.137Z,99.99
2018-11-13T09:26:32.059Z,99.99
2018-11-13T09:27:32.045Z,99.99
2018-11-13T09:28:32.107Z,99.99
2018-11-13T09:29:32.080Z,99.99
2018-11-13T09:30:32.308Z,99.99
2018-11-13T09:31:32.088Z,99.99
2018-11-13T09:32:33.734Z,99.99
2018-11-13T09:33:32.107Z,99.99
2018-11-13T09:34:32.095Z,99.99
2018-11-13T09:35:33.780Z,99.99
2018-11-13T09:36:32.088Z,99.99
2018-11-13T09:37:32.097Z,99.99
2018-11-13T09:38:32.085Z,99.99
2018-11-13T09:39:32.186Z,99.99
2018-11-13T09:40:32.080Z,99.99
2018-11-13T09:41:32.140Z,99.99
2018-11-13T09:42:32.059Z,99.99
2018-11-13T09:43:32.067Z,99.99
2018-11-13T09:44:32.056Z,99.99
2018-11-13T09:45:32.278Z,99.99
2018-11-13T09:46:32.056Z,99.99
2018-11-13T09:47:32.094Z,99.99
2018-11-13T09:48:32.107Z,99.99
2018-11-13T09:49:32.142Z,99.99
2018-11-13T09:50:32.139Z,99.99
2018-11-13T09:51:32.116Z,99.99
2018-11-13T09:52:32.084Z,99.99
2018-11-13T09:53:32.178Z,99.99
2018-11-13T09:54:32.093Z,99.99
2018-11-13T09:55:32.087Z,99.99
2018-11-13T09:56:32.155Z,99.99
2018-11-13T09:57:32.103Z,99.99
2018-11-13T09:58:32.135Z,99.99
2018-11-13T09:59:32.069Z,99.99
2018-11-13T10:00:32.386Z,99.99
2018-11-13T10:01:32.432Z,99.99
2018-11-13T10:02:32.706Z,99.99
2018-11-13T10:03:32.510Z,99.99
2018-11-13T10:04:32.702Z,99.99
2018-11-13T10:05:32.250Z,99.99
2018-11-13T10:06:32.109Z,99.99
2018-11-13T10:07:32.119Z,99.99
2018-11-13T10:08:32.104Z,99.99
2018-11-13T10:09:32.131Z,99.99
2018-11-13T10:10:32.107Z,99.99
2018-11-13T10:11:32.103Z,99.99
2018-11-13T10:12:32.098Z,99.99
2018-11-13T10:13:32.106Z,99.99
2018-11-13T10:14:32.195Z,99.99
2018-11-13T10:15:32.122Z,99.99
2018-11-13T10:16:32.112Z,99.99
2018-11-13T10:17:32.174Z,99.99
2018-11-13T10:18:32.111Z,99.99
2018-11-13T10:19:32.093Z,99.99
2018-11-13T10:20:32.138Z,99.99
2018-11-13T10:21:32.124Z,99.99
2018-11-13T10:22:32.125Z,99.99
2018-11-13T10:23:32.109Z,99.99
2018-11-13T10:24:32.108Z,99.99
2018-11-13T10:25:32.111Z,99.99
2018-11-13T10:26:32.195Z,99.99
2018-11-13T10:27:32.160Z,99.99
2018-11-13T10:28:32.119Z,99.99
2018-11-13T10:29:32.148Z,99.99
2018-11-13T10:30:32.179Z,99.99
2018-11-13T10:31:32.137Z,99.99
2018-11-13T10:32:32.141Z,99.99
2018-11-13T10:33:32.118Z,99.99
2018-11-13T10:34:32.150Z,99.99
2018-11-13T10:35:32.158Z,99.99
2018-11-13T10:36:32.195Z,99.99
2018-11-13T10:37:32.126Z,99.99
2018-11-13T10:38:32.150Z,99.99
2018-11-13T10:39:32.164Z,99.99
2018-11-13T10:40:32.225Z,99.99
2018-11-13T10:41:32.231Z,99.99
2018-11-13T10:42:32.163Z,99.99
2018-11-13T10:43:32.172Z,99.99
2018-11-13T10:44:32.176Z,99.99
2018-11-13T10:45:32.184Z,99.99
2018-11-13T10:46:32.176Z,99.99
2018-11-13T10:47:32.169Z,99.99
2018-11-13T10:48:32.193Z,99.99
2018-11-13T10:49:32.175Z,99.99
2018-11-13T10:50:32.294Z,99.99
2018-11-13T10:51:32.240Z,99.99
2018-11-13T10:52:32.200Z,99.99
2018-11-13T10:53:32.144Z,99.99
2018-11-13T10:54:32.183Z,99.99
2018-11-13T10:55:32.216Z,99.99
2018-11-13T10:56:32.239Z,99.99
2018-11-13T10:57:32.219Z,99.99
2018-11-13T10:58:32.285Z,99.99
2018-11-13T10:59:32.214Z,99.99
2018-11-13T11:00:32.167Z,99.99
2018-11-13T11:01:32.249Z,99.99
2018-11-13T11:02:32.226Z,99.99
2018-11-13T11:03:32.209Z,99.99
2018-11-13T11:04:32.235Z,99.99
2018-11-13T11:05:32.167Z,99.99
2018-11-13T11:06:32.163Z,99.99
2018-11-13T11:07:32.166Z,99.99
2018-11-13T11:08:32.243Z,99.99
2018-11-13T11:09:32.370Z,99.99
2018-11-13T11:10:32.263Z,99.99
2018-11-13T11:11:32.251Z,99.99
2018-11-13T11:12:32.202Z,99.99
2018-11-13T11:13:32.257Z,99.99
2018-11-13T11:14:32.235Z,99.99
2018-11-13T11:15:32.198Z,99.99
2018-11-13T11:16:32.185Z,99.99
2018-11-13T11:17:32.222Z,99.99
2018-11-13T11:18:32.207Z,99.99
2018-11-13T11:19:32.307Z,99.99
2018-11-13T11:20:32.201Z,99.99
2018-11-13T11:21:32.236Z,99.99
2018-11-13T11:22:32.223Z,99.99
2018-11-13T11:23:32.243Z,99.99
2018-11-13T11:24:32.233Z,99.99
2018-11-13T11:25:32.329Z,99.99
2018-11-13T11:26:32.275Z,99.99
2018-11-13T11:27:32.218Z,99.99
2018-11-13T11:28:32.200Z,99.99
2018-11-13T11:29:32.241Z,99.99
2018-11-13T11:30:32.197Z,99.99
2018-11-13T11:31:32.212Z,99.99
2018-11-13T11:32:32.197Z,99.99
2018-11-13T11:33:32.199Z,99.99
2018-11-13T11:34:32.209Z,99.99
2018-11-13T11:35:32.223Z,99.99
2018-11-13T11:36:32.227Z,99.99
2018-11-13T11:37:32.225Z,99.99
2018-11-13T11:38:32.315Z,99.99
2018-11-13T11:39:32.236Z,99.99
2018-11-13T11:40:32.210Z,99.99
2018-11-13T11:41:32.216Z,99.99
2018-11-13T11:42:32.230Z,99.99
2018-11-13T11:43:32.218Z,99.95
2018-11-13T11:44:32.330Z,98.42
2018-11-13T11:45:32.212Z,94.46
2018-11-13T11:46:32.217Z,92.83
2018-11-13T11:47:32.249Z,92.55
2018-11-13T11:48:32.233Z,90.93
2018-11-13T11:49:32.239Z,88.73
2018-11-13T11:50:32.248Z,87.97
2018-11-13T11:51:32.248Z,86.73
2018-11-13T11:52:32.250Z,85.11
2018-11-13T11:53:32.218Z,84.34
2018-11-13T11:54:32.276Z,84.72
2018-11-13T11:55:32.224Z,80.81
2018-11-13T11:56:32.228Z,80.43
2018-11-13T11:57:32.257Z,78.52
2018-11-13T11:58:32.288Z,80.05
2018-11-13T11:59:32.241Z,80.05
2018-11-13T12:00:32.282Z,81.20
2018-11-13T12:01:32.305Z,80.09
2018-11-13T12:02:32.245Z,81.43
2018-11-13T12:03:32.255Z,84.86
2018-11-13T12:04:32.254Z,86.39
2018-11-13T12:05:32.272Z,86.87
2018-11-13T12:06:32.277Z,86.10
2018-11-13T12:07:32.272Z,87.54
2018-11-13T12:08:32.238Z,87.82
2018-11-13T12:09:32.282Z,90.50
2018-11-13T12:10:32.246Z,89.54
2018-11-13T12:11:32.281Z,89.64
2018-11-13T12:12:32.265Z,90.88
2018-11-13T12:13:32.277Z,91.93
2018-11-13T12:14:32.237Z,91.55
2018-11-13T12:15:32.267Z,90.78
2018-11-13T12:16:32.291Z,93.93
2018-11-13T12:17:32.246Z,94.03
2018-11-13T12:18:32.254Z,93.79
2018-11-13T12:19:32.372Z,94.51
2018-11-13T12:20:32.303Z,93.93
2018-11-13T12:21:32.262Z,94.41
2018-11-13T12:22:32.306Z,91.45
2018-11-13T12:23:32.307Z,90.21
2018-11-13T12:24:32.292Z,90.40
2018-11-13T12:25:32.264Z,90.78
2018-11-13T12:26:32.305Z,91.36
2018-11-13T12:27:32.265Z,92.31
2018-11-13T12:28:32.295Z,90.40
2018-11-13T12:29:32.437Z,89.45
2018-11-13T12:30:32.271Z,90.69
2018-11-13T12:31:32.331Z,92.21
2018-11-13T12:32:32.301Z,93.55
2018-11-13T12:33:32.350Z,93.46
2018-11-13T12:34:32.381Z,95.27
2018-11-13T12:35:32.284Z,95.46
2018-11-13T12:36:32.289Z,96.03
2018-11-13T12:37:32.263Z,95.94
2018-11-13T12:38:32.286Z,97.94
2018-11-13T12:39:32.290Z,98.13
2018-11-13T12:40:32.329Z,99.18
2018-11-13T12:41:32.272Z,99.99
2018-11-13T12:42:32.327Z,99.99
2018-11-13T12:43:32.274Z,99.99
2018-11-13T12:44:32.285Z,99.99
2018-11-13T12:45:32.585Z,99.99
2018-11-13T12:46:32.283Z,99.99
2018-11-13T12:47:32.347Z,99.99
2018-11-13T12:48:32.311Z,99.99
2018-11-13T12:49:32.285Z,99.99
2018-11-13T12:50:32.297Z,99.99
2018-11-13T12:51:32.315Z,99.99
2018-11-13T12:52:32.291Z,99.99